sensor_id;sensor_type;location;lat;lon;timestamp;P1;durP1;ratioP1;P2;durP2;ratioP2
42668;SDS011;29384;42.028;21.388;2023-01-19T00:01:49;32.25;;;5.47;;
42668;SDS011;29384;42.028;21.388;2023-01-19T00:04:14;37.58;;;5.22;;
42668;SDS011;29384;42.028;21.388;2023-01-19T00:06:40;22.50;;;4.32;;
42668;SDS011;29384;42.028;21.388;2023-01-19T00:09:05;33.00;;;4.50;;
42668;SDS011;29384;42.028;21.388;2023-01-19T00:11:30;30.63;;;4.30;;
42668;SDS011;29384;42.028;21.388;2023-01-19T00:13:55;24.95;;;4.60;;
42668;SDS011;29384;42.028;21.388;2023-01-19T00:16:22;37.22;;;4.75;;
42668;SDS011;29384;42.028;21.388;2023-01-19T00:18:48;31.30;;;4.63;;
42668;SDS011;29384;42.028;21.388;2023-01-19T00:21:14;35.05;;;4.47;;
42668;SDS011;29384;42.028;21.388;2023-01-19T00:23:40;27.08;;;4.68;;
42668;SDS011;29384;42.028;21.388;2023-01-19T00:26:06;42.85;;;3.72;;
42668;SDS011;29384;42.028;21.388;2023-01-19T00:28:32;26.45;;;4.32;;
42668;SDS011;29384;42.028;21.388;2023-01-19T00:30:58;34.60;;;5.93;;
42668;SDS011;29384;42.028;21.388;2023-01-19T00:33:23;32.80;;;5.25;;
42668;SDS011;29384;42.028;21.388;2023-01-19T00:35:52;33.58;;;5.00;;
42668;SDS011;29384;42.028;21.388;2023-01-19T00:38:19;34.67;;;4.20;;
42668;SDS011;29384;42.028;21.388;2023-01-19T00:40:44;37.58;;;7.55;;
42668;SDS011;29384;42.028;21.388;2023-01-19T00:43:09;35.75;;;5.60;;
42668;SDS011;29384;42.028;21.388;2023-01-19T00:45:35;53.25;;;6.28;;
42668;SDS011;29384;42.028;21.388;2023-01-19T00:48:00;53.63;;;6.78;;
42668;SDS011;29384;42.028;21.388;2023-01-19T00:50:26;30.90;;;5.55;;
42668;SDS011;29384;42.028;21.388;2023-01-19T00:52:52;35.53;;;5.80;;
42668;SDS011;29384;42.028;21.388;2023-01-19T00:55:18;30.73;;;4.57;;
42668;SDS011;29384;42.028;21.388;2023-01-19T00:57:43;23.77;;;5.60;;
42668;SDS011;29384;42.028;21.388;2023-01-19T01:00:12;23.85;;;5.07;;
42668;SDS011;29384;42.028;21.388;2023-01-19T01:02:38;32.50;;;6.40;;
42668;SDS011;29384;42.028;21.388;2023-01-19T01:05:04;26.38;;;5.95;;
42668;SDS011;29384;42.028;21.388;2023-01-19T01:07:30;33.28;;;5.80;;
42668;SDS011;29384;42.028;21.388;2023-01-19T01:09:59;23.48;;;5.60;;
42668;SDS011;29384;42.028;21.388;2023-01-19T01:12:24;28.80;;;4.07;;
42668;SDS011;29384;42.028;21.388;2023-01-19T01:14:50;38.88;;;7.00;;
42668;SDS011;29384;42.028;21.388;2023-01-19T01:17:15;60.70;;;7.13;;
42668;SDS011;29384;42.028;21.388;2023-01-19T01:19:40;38.83;;;4.85;;
42668;SDS011;29384;42.028;21.388;2023-01-19T01:22:06;30.23;;;4.90;;
42668;SDS011;29384;42.028;21.388;2023-01-19T01:24:32;16.02;;;3.80;;
42668;SDS011;29384;42.028;21.388;2023-01-19T01:26:57;23.17;;;4.35;;
42668;SDS011;29384;42.028;21.388;2023-01-19T01:29:23;28.98;;;4.80;;
42668;SDS011;29384;42.028;21.388;2023-01-19T01:31:48;27.55;;;4.85;;
42668;SDS011;29384;42.028;21.388;2023-01-19T01:34:13;35.60;;;5.82;;
42668;SDS011;29384;42.028;21.388;2023-01-19T01:36:38;26.83;;;5.22;;
42668;SDS011;29384;42.028;21.388;2023-01-19T01:39:04;32.15;;;5.18;;
42668;SDS011;29384;42.028;21.388;2023-01-19T01:41:29;33.53;;;5.05;;
42668;SDS011;29384;42.028;21.388;2023-01-19T01:43:55;77.05;;;7.03;;
42668;SDS011;29384;42.028;21.388;2023-01-19T01:46:26;25.42;;;5.03;;
42668;SDS011;29384;42.028;21.388;2023-01-19T01:51:25;32.60;;;5.85;;
42668;SDS011;29384;42.028;21.388;2023-01-19T01:53:56;22.85;;;4.40;;
42668;SDS011;29384;42.028;21.388;2023-01-19T01:56:25;27.80;;;5.13;;
42668;SDS011;29384;42.028;21.388;2023-01-19T01:58:52;19.73;;;3.75;;
42668;SDS011;29384;42.028;21.388;2023-01-19T02:01:17;39.50;;;4.07;;
42668;SDS011;29384;42.028;21.388;2023-01-19T02:04:01;34.10;;;5.50;;
42668;SDS011;29384;42.028;21.388;2023-01-19T02:06:26;51.13;;;6.75;;
42668;SDS011;29384;42.028;21.388;2023-01-19T02:09:01;27.23;;;6.07;;
42668;SDS011;29384;42.028;21.388;2023-01-19T02:11:46;38.13;;;4.90;;
42668;SDS011;29384;42.028;21.388;2023-01-19T02:14:30;38.90;;;5.82;;
42668;SDS011;29384;42.028;21.388;2023-01-19T02:16:55;36.28;;;5.30;;
42668;SDS011;29384;42.028;21.388;2023-01-19T02:19:22;32.88;;;6.00;;
42668;SDS011;29384;42.028;21.388;2023-01-19T02:21:58;29.25;;;4.60;;
42668;SDS011;29384;42.028;21.388;2023-01-19T02:24:26;17.60;;;3.25;;
42668;SDS011;29384;42.028;21.388;2023-01-19T02:26:53;26.38;;;6.05;;
42668;SDS011;29384;42.028;21.388;2023-01-19T02:29:19;32.65;;;5.57;;
42668;SDS011;29384;42.028;21.388;2023-01-19T02:31:45;54.58;;;4.80;;
42668;SDS011;29384;42.028;21.388;2023-01-19T02:34:13;32.78;;;5.25;;
42668;SDS011;29384;42.028;21.388;2023-01-19T02:36:47;29.20;;;4.43;;
42668;SDS011;29384;42.028;21.388;2023-01-19T02:39:14;26.75;;;3.30;;
42668;SDS011;29384;42.028;21.388;2023-01-19T02:41:44;32.38;;;5.00;;
42668;SDS011;29384;42.028;21.388;2023-01-19T02:44:10;33.28;;;4.15;;
42668;SDS011;29384;42.028;21.388;2023-01-19T02:46:36;36.20;;;5.05;;
42668;SDS011;29384;42.028;21.388;2023-01-19T02:49:02;32.55;;;5.72;;
42668;SDS011;29384;42.028;21.388;2023-01-19T02:51:27;33.05;;;4.03;;
42668;SDS011;29384;42.028;21.388;2023-01-19T02:58:58;33.03;;;5.78;;
42668;SDS011;29384;42.028;21.388;2023-01-19T03:06:45;20.92;;;4.47;;
42668;SDS011;29384;42.028;21.388;2023-01-19T03:12:17;29.05;;;3.97;;
42668;SDS011;29384;42.028;21.388;2023-01-19T03:14:41;35.45;;;4.68;;
42668;SDS011;29384;42.028;21.388;2023-01-19T03:17:09;51.58;;;4.28;;
42668;SDS011;29384;42.028;21.388;2023-01-19T03:19:40;20.80;;;3.80;;
42668;SDS011;29384;42.028;21.388;2023-01-19T03:22:09;30.45;;;5.13;;
42668;SDS011;29384;42.028;21.388;2023-01-19T03:24:39;48.42;;;5.88;;
42668;SDS011;29384;42.028;21.388;2023-01-19T03:27:13;32.47;;;5.05;;
42668;SDS011;29384;42.028;21.388;2023-01-19T03:29:41;39.35;;;4.93;;
42668;SDS011;29384;42.028;21.388;2023-01-19T03:32:08;23.75;;;5.35;;
42668;SDS011;29384;42.028;21.388;2023-01-19T03:34:35;40.75;;;6.07;;
42668;SDS011;29384;42.028;21.388;2023-01-19T03:37:02;33.13;;;4.38;;
42668;SDS011;29384;42.028;21.388;2023-01-19T03:39:28;28.02;;;3.63;;
42668;SDS011;29384;42.028;21.388;2023-01-19T03:41:55;29.80;;;4.55;;
42668;SDS011;29384;42.028;21.388;2023-01-19T03:44:22;38.67;;;6.03;;
42668;SDS011;29384;42.028;21.388;2023-01-19T03:46:47;34.60;;;4.93;;
42668;SDS011;29384;42.028;21.388;2023-01-19T03:49:14;30.40;;;5.03;;
42668;SDS011;29384;42.028;21.388;2023-01-19T03:51:39;22.08;;;4.05;;
42668;SDS011;29384;42.028;21.388;2023-01-19T03:54:05;39.25;;;6.45;;
42668;SDS011;29384;42.028;21.388;2023-01-19T03:56:31;29.45;;;4.50;;
42668;SDS011;29384;42.028;21.388;2023-01-19T03:58:56;35.72;;;4.38;;
42668;SDS011;29384;42.028;21.388;2023-01-19T04:01:22;26.13;;;3.45;;
42668;SDS011;29384;42.028;21.388;2023-01-19T04:03:50;30.90;;;5.47;;
42668;SDS011;29384;42.028;21.388;2023-01-19T04:06:16;31.63;;;3.72;;
42668;SDS011;29384;42.028;21.388;2023-01-19T04:08:41;19.52;;;3.78;;
42668;SDS011;29384;42.028;21.388;2023-01-19T04:11:07;31.23;;;4.38;;
42668;SDS011;29384;42.028;21.388;2023-01-19T04:13:32;42.58;;;3.88;;
42668;SDS011;29384;42.028;21.388;2023-01-19T04:16:01;46.78;;;6.95;;
42668;SDS011;29384;42.028;21.388;2023-01-19T04:18:28;38.45;;;5.78;;
42668;SDS011;29384;42.028;21.388;2023-01-19T04:20:53;21.25;;;2.67;;
42668;SDS011;29384;42.028;21.388;2023-01-19T04:23:18;29.48;;;4.38;;
42668;SDS011;29384;42.028;21.388;2023-01-19T04:25:44;46.53;;;5.65;;
42668;SDS011;29384;42.028;21.388;2023-01-19T04:28:09;45.30;;;7.10;;
42668;SDS011;29384;42.028;21.388;2023-01-19T04:30:35;32.95;;;5.25;;
42668;SDS011;29384;42.028;21.388;2023-01-19T04:33:00;48.45;;;7.65;;
42668;SDS011;29384;42.028;21.388;2023-01-19T04:35:25;39.67;;;4.97;;
42668;SDS011;29384;42.028;21.388;2023-01-19T04:37:51;31.73;;;4.53;;
42668;SDS011;29384;42.028;21.388;2023-01-19T04:40:16;34.05;;;5.00;;
42668;SDS011;29384;42.028;21.388;2023-01-19T04:42:42;33.70;;;5.47;;
42668;SDS011;29384;42.028;21.388;2023-01-19T04:45:08;24.20;;;4.35;;
42668;SDS011;29384;42.028;21.388;2023-01-19T04:47:33;61.10;;;5.47;;
42668;SDS011;29384;42.028;21.388;2023-01-19T04:49:58;27.38;;;4.82;;
42668;SDS011;29384;42.028;21.388;2023-01-19T04:52:24;28.50;;;4.22;;
42668;SDS011;29384;42.028;21.388;2023-01-19T04:54:49;33.97;;;7.28;;
42668;SDS011;29384;42.028;21.388;2023-01-19T04:57:14;29.92;;;4.93;;
42668;SDS011;29384;42.028;21.388;2023-01-19T04:59:40;38.33;;;7.07;;
42668;SDS011;29384;42.028;21.388;2023-01-19T05:02:05;41.15;;;5.57;;
42668;SDS011;29384;42.028;21.388;2023-01-19T05:04:31;42.42;;;6.45;;
42668;SDS011;29384;42.028;21.388;2023-01-19T05:06:56;39.55;;;5.10;;
42668;SDS011;29384;42.028;21.388;2023-01-19T05:09:22;25.40;;;5.30;;
42668;SDS011;29384;42.028;21.388;2023-01-19T05:11:47;27.05;;;4.45;;
42668;SDS011;29384;42.028;21.388;2023-01-19T05:14:12;56.95;;;7.32;;
42668;SDS011;29384;42.028;21.388;2023-01-19T05:16:38;26.73;;;4.78;;
42668;SDS011;29384;42.028;21.388;2023-01-19T05:19:03;42.35;;;5.78;;
42668;SDS011;29384;42.028;21.388;2023-01-19T05:21:28;32.83;;;5.82;;
42668;SDS011;29384;42.028;21.388;2023-01-19T05:23:54;29.20;;;4.97;;
42668;SDS011;29384;42.028;21.388;2023-01-19T05:26:19;31.55;;;5.00;;
42668;SDS011;29384;42.028;21.388;2023-01-19T05:28:44;53.78;;;7.15;;
42668;SDS011;29384;42.028;21.388;2023-01-19T05:31:09;51.30;;;5.90;;
42668;SDS011;29384;42.028;21.388;2023-01-19T05:33:35;47.17;;;5.95;;
42668;SDS011;29384;42.028;21.388;2023-01-19T05:36:00;36.50;;;5.53;;
42668;SDS011;29384;42.028;21.388;2023-01-19T05:38:26;33.40;;;6.30;;
42668;SDS011;29384;42.028;21.388;2023-01-19T05:40:55;36.58;;;6.50;;
42668;SDS011;29384;42.028;21.388;2023-01-19T05:43:21;41.58;;;6.05;;
42668;SDS011;29384;42.028;21.388;2023-01-19T05:45:46;40.13;;;6.05;;
42668;SDS011;29384;42.028;21.388;2023-01-19T05:48:11;35.33;;;6.50;;
42668;SDS011;29384;42.028;21.388;2023-01-19T05:50:37;46.13;;;7.07;;
42668;SDS011;29384;42.028;21.388;2023-01-19T05:53:02;42.65;;;6.72;;
42668;SDS011;29384;42.028;21.388;2023-01-19T05:55:27;37.55;;;6.35;;
42668;SDS011;29384;42.028;21.388;2023-01-19T05:57:53;47.33;;;5.55;;
42668;SDS011;29384;42.028;21.388;2023-01-19T06:00:18;37.35;;;5.15;;
42668;SDS011;29384;42.028;21.388;2023-01-19T06:02:44;23.10;;;4.50;;
42668;SDS011;29384;42.028;21.388;2023-01-19T06:05:10;45.70;;;6.85;;
42668;SDS011;29384;42.028;21.388;2023-01-19T06:07:36;65.22;;;7.70;;
42668;SDS011;29384;42.028;21.388;2023-01-19T06:10:01;30.60;;;5.55;;
42668;SDS011;29384;42.028;21.388;2023-01-19T06:12:26;36.63;;;5.38;;
42668;SDS011;29384;42.028;21.388;2023-01-19T06:14:52;40.58;;;5.95;;
42668;SDS011;29384;42.028;21.388;2023-01-19T06:17:17;68.88;;;7.47;;
42668;SDS011;29384;42.028;21.388;2023-01-19T06:19:43;37.97;;;4.70;;
42668;SDS011;29384;42.028;21.388;2023-01-19T06:22:08;30.55;;;4.30;;
42668;SDS011;29384;42.028;21.388;2023-01-19T06:24:33;51.40;;;5.65;;
42668;SDS011;29384;42.028;21.388;2023-01-19T06:26:59;23.80;;;5.95;;
42668;SDS011;29384;42.028;21.388;2023-01-19T06:29:27;35.35;;;6.47;;
42668;SDS011;29384;42.028;21.388;2023-01-19T06:31:52;39.35;;;7.53;;
42668;SDS011;29384;42.028;21.388;2023-01-19T06:34:17;39.55;;;7.07;;
42668;SDS011;29384;42.028;21.388;2023-01-19T06:36:43;54.13;;;6.30;;
42668;SDS011;29384;42.028;21.388;2023-01-19T06:39:09;59.35;;;7.05;;
42668;SDS011;29384;42.028;21.388;2023-01-19T06:41:35;45.80;;;5.40;;
42668;SDS011;29384;42.028;21.388;2023-01-19T06:44:00;45.47;;;7.95;;
42668;SDS011;29384;42.028;21.388;2023-01-19T06:46:26;33.13;;;5.40;;
42668;SDS011;29384;42.028;21.388;2023-01-19T06:48:51;35.88;;;6.22;;
42668;SDS011;29384;42.028;21.388;2023-01-19T06:51:17;33.17;;;7.20;;
42668;SDS011;29384;42.028;21.388;2023-01-19T06:53:42;40.65;;;6.55;;
42668;SDS011;29384;42.028;21.388;2023-01-19T06:56:07;43.45;;;6.53;;
42668;SDS011;29384;42.028;21.388;2023-01-19T06:58:33;40.55;;;5.95;;
42668;SDS011;29384;42.028;21.388;2023-01-19T07:01:05;42.65;;;7.20;;
42668;SDS011;29384;42.028;21.388;2023-01-19T07:03:31;37.42;;;6.47;;
42668;SDS011;29384;42.028;21.388;2023-01-19T07:05:56;43.50;;;7.70;;
42668;SDS011;29384;42.028;21.388;2023-01-19T07:08:22;50.50;;;8.18;;
42668;SDS011;29384;42.028;21.388;2023-01-19T07:10:48;41.42;;;5.75;;
42668;SDS011;29384;42.028;21.388;2023-01-19T07:13:13;39.70;;;5.22;;
42668;SDS011;29384;42.028;21.388;2023-01-19T07:15:38;35.65;;;6.32;;
42668;SDS011;29384;42.028;21.388;2023-01-19T07:18:04;61.03;;;8.45;;
42668;SDS011;29384;42.028;21.388;2023-01-19T07:20:33;31.77;;;5.85;;
42668;SDS011;29384;42.028;21.388;2023-01-19T07:22:59;66.30;;;7.60;;
42668;SDS011;29384;42.028;21.388;2023-01-19T07:25:24;58.75;;;9.63;;
42668;SDS011;29384;42.028;21.388;2023-01-19T07:27:51;34.50;;;4.40;;
42668;SDS011;29384;42.028;21.388;2023-01-19T07:30:16;39.72;;;7.45;;
42668;SDS011;29384;42.028;21.388;2023-01-19T07:32:41;54.83;;;7.75;;
42668;SDS011;29384;42.028;21.388;2023-01-19T07:35:07;40.58;;;6.28;;
42668;SDS011;29384;42.028;21.388;2023-01-19T07:37:33;26.85;;;7.85;;
42668;SDS011;29384;42.028;21.388;2023-01-19T07:39:58;38.92;;;5.03;;
42668;SDS011;29384;42.028;21.388;2023-01-19T07:42:23;36.05;;;7.15;;
42668;SDS011;29384;42.028;21.388;2023-01-19T07:44:48;43.85;;;6.80;;
42668;SDS011;29384;42.028;21.388;2023-01-19T07:47:14;30.50;;;5.82;;
42668;SDS011;29384;42.028;21.388;2023-01-19T07:49:39;40.97;;;5.88;;
42668;SDS011;29384;42.028;21.388;2023-01-19T07:52:04;57.05;;;10.40;;
42668;SDS011;29384;42.028;21.388;2023-01-19T07:54:30;45.22;;;7.20;;
42668;SDS011;29384;42.028;21.388;2023-01-19T07:56:55;64.80;;;7.95;;
42668;SDS011;29384;42.028;21.388;2023-01-19T07:59:20;51.13;;;7.28;;
42668;SDS011;29384;42.028;21.388;2023-01-19T08:01:45;56.97;;;8.00;;
42668;SDS011;29384;42.028;21.388;2023-01-19T08:04:11;52.80;;;7.80;;
42668;SDS011;29384;42.028;21.388;2023-01-19T08:06:36;55.03;;;6.95;;
42668;SDS011;29384;42.028;21.388;2023-01-19T08:09:02;46.78;;;7.22;;
42668;SDS011;29384;42.028;21.388;2023-01-19T08:11:30;40.63;;;8.82;;
42668;SDS011;29384;42.028;21.388;2023-01-19T08:13:55;56.88;;;6.97;;
42668;SDS011;29384;42.028;21.388;2023-01-19T08:19:23;46.80;;;7.25;;
42668;SDS011;29384;42.028;21.388;2023-01-19T08:21:48;40.53;;;7.47;;
42668;SDS011;29384;42.028;21.388;2023-01-19T08:24:17;43.97;;;7.57;;
42668;SDS011;29384;42.028;21.388;2023-01-19T08:26:43;46.22;;;5.95;;
42668;SDS011;29384;42.028;21.388;2023-01-19T08:29:08;53.10;;;7.65;;
42668;SDS011;29384;42.028;21.388;2023-01-19T08:34:36;39.92;;;7.45;;
42668;SDS011;29384;42.028;21.388;2023-01-19T08:37:02;31.88;;;6.05;;
42668;SDS011;29384;42.028;21.388;2023-01-19T08:39:27;49.10;;;8.13;;
42668;SDS011;29384;42.028;21.388;2023-01-19T08:41:52;33.95;;;5.32;;
42668;SDS011;29384;42.028;21.388;2023-01-19T08:44:18;42.40;;;7.00;;
42668;SDS011;29384;42.028;21.388;2023-01-19T08:46:43;40.47;;;6.00;;
42668;SDS011;29384;42.028;21.388;2023-01-19T08:49:08;37.92;;;7.10;;
42668;SDS011;29384;42.028;21.388;2023-01-19T08:51:34;28.30;;;6.43;;
42668;SDS011;29384;42.028;21.388;2023-01-19T08:53:59;40.88;;;5.97;;
42668;SDS011;29384;42.028;21.388;2023-01-19T08:56:24;28.02;;;4.97;;
42668;SDS011;29384;42.028;21.388;2023-01-19T08:58:50;58.42;;;7.25;;
42668;SDS011;29384;42.028;21.388;2023-01-19T09:04:18;36.20;;;6.55;;
42668;SDS011;29384;42.028;21.388;2023-01-19T09:06:43;36.70;;;6.45;;
42668;SDS011;29384;42.028;21.388;2023-01-19T09:09:08;32.92;;;7.50;;
42668;SDS011;29384;42.028;21.388;2023-01-19T09:11:34;46.60;;;5.88;;
42668;SDS011;29384;42.028;21.388;2023-01-19T09:13:59;42.70;;;7.43;;
42668;SDS011;29384;42.028;21.388;2023-01-19T09:19:27;57.75;;;7.00;;
42668;SDS011;29384;42.028;21.388;2023-01-19T09:21:52;38.40;;;5.15;;
42668;SDS011;29384;42.028;21.388;2023-01-19T09:24:18;30.38;;;5.75;;
42668;SDS011;29384;42.028;21.388;2023-01-19T09:26:43;38.75;;;5.57;;
42668;SDS011;29384;42.028;21.388;2023-01-19T09:29:09;56.08;;;6.85;;
42668;SDS011;29384;42.028;21.388;2023-01-19T09:34:37;30.02;;;5.63;;
42668;SDS011;29384;42.028;21.388;2023-01-19T09:37:02;15.55;;;4.00;;
42668;SDS011;29384;42.028;21.388;2023-01-19T09:39:27;50.50;;;6.75;;
42668;SDS011;29384;42.028;21.388;2023-01-19T09:42:07;32.88;;;8.00;;
42668;SDS011;29384;42.028;21.388;2023-01-19T09:44:36;24.38;;;4.78;;
42668;SDS011;29384;42.028;21.388;2023-01-19T09:50:05;32.83;;;5.93;;
42668;SDS011;29384;42.028;21.388;2023-01-19T09:52:32;22.73;;;4.60;;
42668;SDS011;29384;42.028;21.388;2023-01-19T09:54:58;19.58;;;4.57;;
42668;SDS011;29384;42.028;21.388;2023-01-19T09:57:24;31.10;;;4.93;;
42668;SDS011;29384;42.028;21.388;2023-01-19T09:59:51;51.42;;;6.38;;
42668;SDS011;29384;42.028;21.388;2023-01-19T10:10:04;35.00;;;3.53;;
42668;SDS011;29384;42.028;21.388;2023-01-19T10:12:34;43.03;;;5.47;;
42668;SDS011;29384;42.028;21.388;2023-01-19T10:15:17;33.10;;;5.65;;
42668;SDS011;29384;42.028;21.388;2023-01-19T10:17:50;25.83;;;5.43;;
42668;SDS011;29384;42.028;21.388;2023-01-19T10:20:23;15.38;;;4.63;;
42668;SDS011;29384;42.028;21.388;2023-01-19T10:22:50;21.67;;;5.10;;
42668;SDS011;29384;42.028;21.388;2023-01-19T10:25:17;18.50;;;4.43;;
42668;SDS011;29384;42.028;21.388;2023-01-19T10:27:43;35.05;;;6.00;;
42668;SDS011;29384;42.028;21.388;2023-01-19T10:30:14;31.90;;;3.90;;
42668;SDS011;29384;42.028;21.388;2023-01-19T10:32:40;34.10;;;7.32;;
42668;SDS011;29384;42.028;21.388;2023-01-19T10:35:24;30.00;;;4.65;;
42668;SDS011;29384;42.028;21.388;2023-01-19T10:37:59;16.40;;;4.50;;
42668;SDS011;29384;42.028;21.388;2023-01-19T10:40:30;25.70;;;6.50;;
42668;SDS011;29384;42.028;21.388;2023-01-19T10:42:57;19.40;;;3.95;;
42668;SDS011;29384;42.028;21.388;2023-01-19T10:45:23;20.10;;;3.30;;
42668;SDS011;29384;42.028;21.388;2023-01-19T10:47:49;27.33;;;4.25;;
42668;SDS011;29384;42.028;21.388;2023-01-19T10:50:27;17.17;;;5.28;;
42668;SDS011;29384;42.028;21.388;2023-01-19T10:52:54;16.08;;;4.72;;
42668;SDS011;29384;42.028;21.388;2023-01-19T10:55:24;23.98;;;3.30;;
42668;SDS011;29384;42.028;21.388;2023-01-19T10:57:50;15.38;;;2.75;;
42668;SDS011;29384;42.028;21.388;2023-01-19T11:03:02;20.58;;;3.92;;
42668;SDS011;29384;42.028;21.388;2023-01-19T11:05:28;18.05;;;4.68;;
42668;SDS011;29384;42.028;21.388;2023-01-19T11:07:54;21.70;;;3.05;;
42668;SDS011;29384;42.028;21.388;2023-01-19T11:15:20;17.30;;;3.05;;
42668;SDS011;29384;42.028;21.388;2023-01-19T11:17:47;18.30;;;2.53;;
42668;SDS011;29384;42.028;21.388;2023-01-19T11:20:56;14.35;;;3.35;;
42668;SDS011;29384;42.028;21.388;2023-01-19T11:25:39;18.05;;;3.17;;
42668;SDS011;29384;42.028;21.388;2023-01-19T11:28:04;20.35;;;2.83;;
42668;SDS011;29384;42.028;21.388;2023-01-19T11:30:30;25.20;;;3.00;;
42668;SDS011;29384;42.028;21.388;2023-01-19T11:32:55;21.55;;;3.15;;
42668;SDS011;29384;42.028;21.388;2023-01-19T11:40:37;13.38;;;2.90;;
42668;SDS011;29384;42.028;21.388;2023-01-19T11:43:03;12.55;;;2.90;;
42668;SDS011;29384;42.028;21.388;2023-01-19T11:45:28;24.33;;;3.20;;
42668;SDS011;29384;42.028;21.388;2023-01-19T11:47:54;15.45;;;3.95;;
42668;SDS011;29384;42.028;21.388;2023-01-19T11:52:48;33.13;;;4.35;;
42668;SDS011;29384;42.028;21.388;2023-01-19T11:55:20;11.50;;;2.40;;
42668;SDS011;29384;42.028;21.388;2023-01-19T11:57:47;40.35;;;12.50;;
42668;SDS011;29384;42.028;21.388;2023-01-19T12:06:19;5.10;;;1.92;;
42668;SDS011;29384;42.028;21.388;2023-01-19T12:08:47;19.98;;;4.00;;
42668;SDS011;29384;42.028;21.388;2023-01-19T12:11:15;20.50;;;3.03;;
42668;SDS011;29384;42.028;21.388;2023-01-19T12:13:41;20.42;;;6.15;;
42668;SDS011;29384;42.028;21.388;2023-01-19T12:16:17;7.50;;;3.08;;
42668;SDS011;29384;42.028;21.388;2023-01-19T12:18:45;11.30;;;4.70;;
42668;SDS011;29384;42.028;21.388;2023-01-19T12:21:11;10.18;;;3.40;;
42668;SDS011;29384;42.028;21.388;2023-01-19T12:23:40;16.85;;;2.72;;
42668;SDS011;29384;42.028;21.388;2023-01-19T12:26:27;19.83;;;2.83;;
42668;SDS011;29384;42.028;21.388;2023-01-19T12:28:53;18.13;;;2.65;;
42668;SDS011;29384;42.028;21.388;2023-01-19T12:31:21;12.15;;;2.70;;
42668;SDS011;29384;42.028;21.388;2023-01-19T12:33:47;15.18;;;2.58;;
42668;SDS011;29384;42.028;21.388;2023-01-19T12:41:34;12.00;;;2.80;;
42668;SDS011;29384;42.028;21.388;2023-01-19T12:51:43;12.65;;;3.58;;
42668;SDS011;29384;42.028;21.388;2023-01-19T12:54:15;7.30;;;1.75;;
42668;SDS011;29384;42.028;21.388;2023-01-19T12:56:43;6.07;;;2.75;;
42668;SDS011;29384;42.028;21.388;2023-01-19T12:59:17;12.88;;;2.42;;
42668;SDS011;29384;42.028;21.388;2023-01-19T13:02:19;11.07;;;2.47;;
42668;SDS011;29384;42.028;21.388;2023-01-19T13:04:32;6.63;;;2.25;;
42668;SDS011;29384;42.028;21.388;2023-01-19T13:09:33;9.48;;;1.52;;
42668;SDS011;29384;42.028;21.388;2023-01-19T13:17:54;17.95;;;2.25;;
42668;SDS011;29384;42.028;21.388;2023-01-19T13:20:42;8.27;;;2.10;;
42668;SDS011;29384;42.028;21.388;2023-01-19T13:23:16;7.93;;;1.48;;
42668;SDS011;29384;42.028;21.388;2023-01-19T13:25:43;6.03;;;1.67;;
42668;SDS011;29384;42.028;21.388;2023-01-19T13:28:11;13.13;;;3.50;;
42668;SDS011;29384;42.028;21.388;2023-01-19T13:30:38;9.93;;;1.50;;
42668;SDS011;29384;42.028;21.388;2023-01-19T13:33:43;8.68;;;3.17;;
42668;SDS011;29384;42.028;21.388;2023-01-19T13:36:15;4.80;;;1.73;;
42668;SDS011;29384;42.028;21.388;2023-01-19T13:38:43;12.03;;;1.80;;
42668;SDS011;29384;42.028;21.388;2023-01-19T13:41:08;4.95;;;1.33;;
42668;SDS011;29384;42.028;21.388;2023-01-19T13:43:35;6.35;;;1.75;;
42668;SDS011;29384;42.028;21.388;2023-01-19T13:54:24;9.77;;;1.77;;
42668;SDS011;29384;42.028;21.388;2023-01-19T13:56:50;3.97;;;2.08;;
42668;SDS011;29384;42.028;21.388;2023-01-19T13:59:15;9.52;;;3.33;;
42668;SDS011;29384;42.028;21.388;2023-01-19T14:04:42;14.00;;;2.10;;
42668;SDS011;29384;42.028;21.388;2023-01-19T14:07:12;12.52;;;2.53;;
42668;SDS011;29384;42.028;21.388;2023-01-19T14:09:46;4.43;;;1.30;;
42668;SDS011;29384;42.028;21.388;2023-01-19T14:12:12;7.25;;;2.13;;
42668;SDS011;29384;42.028;21.388;2023-01-19T14:14:38;13.45;;;3.88;;
42668;SDS011;29384;42.028;21.388;2023-01-19T14:20:26;10.63;;;4.05;;
42668;SDS011;29384;42.028;21.388;2023-01-19T14:22:51;11.40;;;3.72;;
42668;SDS011;29384;42.028;21.388;2023-01-19T14:25:35;17.35;;;3.45;;
42668;SDS011;29384;42.028;21.388;2023-01-19T14:36:54;18.90;;;3.67;;
42668;SDS011;29384;42.028;21.388;2023-01-19T14:39:20;21.48;;;5.10;;
42668;SDS011;29384;42.028;21.388;2023-01-19T14:41:47;27.83;;;5.15;;
42668;SDS011;29384;42.028;21.388;2023-01-19T14:44:16;15.68;;;6.68;;
42668;SDS011;29384;42.028;21.388;2023-01-19T14:46:44;33.75;;;8.77;;
42668;SDS011;29384;42.028;21.388;2023-01-19T14:49:12;18.95;;;7.07;;
42668;SDS011;29384;42.028;21.388;2023-01-19T14:51:42;9.80;;;4.68;;
42668;SDS011;29384;42.028;21.388;2023-01-19T14:54:14;13.43;;;3.38;;
42668;SDS011;29384;42.028;21.388;2023-01-19T14:56:41;8.18;;;2.10;;
42668;SDS011;29384;42.028;21.388;2023-01-19T14:59:07;13.15;;;3.63;;
42668;SDS011;29384;42.028;21.388;2023-01-19T15:01:33;12.75;;;3.58;;
42668;SDS011;29384;42.028;21.388;2023-01-19T15:03:58;20.23;;;6.82;;
42668;SDS011;29384;42.028;21.388;2023-01-19T15:06:24;15.02;;;4.43;;
42668;SDS011;29384;42.028;21.388;2023-01-19T15:08:50;33.22;;;7.82;;
42668;SDS011;29384;42.028;21.388;2023-01-19T15:11:25;34.65;;;6.32;;
42668;SDS011;29384;42.028;21.388;2023-01-19T15:13:51;24.83;;;7.25;;
42668;SDS011;29384;42.028;21.388;2023-01-19T15:16:16;23.02;;;5.72;;
42668;SDS011;29384;42.028;21.388;2023-01-19T15:18:42;16.23;;;5.82;;
42668;SDS011;29384;42.028;21.388;2023-01-19T15:21:10;16.58;;;6.35;;
42668;SDS011;29384;42.028;21.388;2023-01-19T15:23:37;22.48;;;6.20;;
42668;SDS011;29384;42.028;21.388;2023-01-19T15:26:03;17.08;;;6.53;;
42668;SDS011;29384;42.028;21.388;2023-01-19T15:28:29;21.13;;;6.22;;
42668;SDS011;29384;42.028;21.388;2023-01-19T15:30:54;19.23;;;7.55;;
42668;SDS011;29384;42.028;21.388;2023-01-19T15:36:22;22.58;;;8.15;;
42668;SDS011;29384;42.028;21.388;2023-01-19T15:38:48;19.55;;;6.53;;
42668;SDS011;29384;42.028;21.388;2023-01-19T15:41:26;17.05;;;6.80;;
42668;SDS011;29384;42.028;21.388;2023-01-19T15:43:51;14.15;;;3.55;;
42668;SDS011;29384;42.028;21.388;2023-01-19T15:46:20;9.80;;;3.05;;
42668;SDS011;29384;42.028;21.388;2023-01-19T15:51:48;3.72;;;1.30;;
42668;SDS011;29384;42.028;21.388;2023-01-19T15:54:13;8.23;;;2.22;;
42668;SDS011;29384;42.028;21.388;2023-01-19T15:56:39;12.13;;;2.08;;
42668;SDS011;29384;42.028;21.388;2023-01-19T15:59:04;2.30;;;1.83;;
42668;SDS011;29384;42.028;21.388;2023-01-19T16:01:29;2.28;;;1.77;;
42668;SDS011;29384;42.028;21.388;2023-01-19T16:04:03;5.85;;;2.42;;
42668;SDS011;29384;42.028;21.388;2023-01-19T16:06:29;7.20;;;2.78;;
42668;SDS011;29384;42.028;21.388;2023-01-19T16:08:54;5.32;;;1.48;;
42668;SDS011;29384;42.028;21.388;2023-01-19T16:11:25;7.90;;;2.47;;
42668;SDS011;29384;42.028;21.388;2023-01-19T16:13:50;5.97;;;2.00;;
42668;SDS011;29384;42.028;21.388;2023-01-19T16:16:17;8.77;;;2.97;;
42668;SDS011;29384;42.028;21.388;2023-01-19T16:21:45;9.43;;;2.63;;
42668;SDS011;29384;42.028;21.388;2023-01-19T16:24:10;5.88;;;2.13;;